createdAt,value
2019-05-12T16:28:28.803Z,14.29
2019-05-12T16:31:05.161Z,13.86
2019-05-12T16:33:33.397Z,13.39
2019-05-12T16:36:10.132Z,13.37
2019-05-12T16:38:40.859Z,14.34
2019-05-12T16:41:14.043Z,14.90
2019-05-12T16:43:44.260Z,14.77
2019-05-12T16:46:14.856Z,15.41
2019-05-12T16:48:48.378Z,15.27
2019-05-12T16:51:23.868Z,15.95
2019-05-12T16:53:55.544Z,15.04
2019-05-12T16:56:29.778Z,15.27
2019-05-12T16:58:59.464Z,15.40
2019-05-12T17:01:30.044Z,15.70
2019-05-12T17:04:00.658Z,15.06
2019-05-12T17:06:34.998Z,15.02
2019-05-12T17:09:06.393Z,14.80
2019-05-12T17:11:47.211Z,15.14
2019-05-12T17:14:11.902Z,15.26
2019-05-12T17:16:46.527Z,15.33
2019-05-12T17:19:15.935Z,14.87
2019-05-12T17:21:49.366Z,15.03
2019-05-12T17:24:20.165Z,14.79
2019-05-12T17:26:50.733Z,14.94
2019-05-12T17:29:21.336Z,15.53
2019-05-12T17:31:53.543Z,14.24
2019-05-12T17:34:25.893Z,14.62
2019-05-12T17:37:00.352Z,14.39
2019-05-12T17:39:29.384Z,14.15
2019-05-12T17:42:01.400Z,14.72
2019-05-12T17:44:36.779Z,14.60
2019-05-12T17:47:04.167Z,14.17
2019-05-12T17:49:34.901Z,14.31
2019-05-12T17:52:13.001Z,13.98
2019-05-12T17:54:37.996Z,13.76
2019-05-12T17:57:09.687Z,13.59
2019-05-12T17:59:42.570Z,13.71
2019-05-12T18:02:16.673Z,12.99
2019-05-12T18:04:46.229Z,12.84
2019-05-12T18:07:19.330Z,13.09
2019-05-12T18:09:50.578Z,12.91
2019-05-12T18:12:26.692Z,12.46
2019-05-12T18:14:55.277Z,12.07
2019-05-12T18:17:33.765Z,12.04
2019-05-12T18:20:04.342Z,12.27
2019-05-12T18:22:39.282Z,12.09
2019-05-12T18:25:08.967Z,11.76
2019-05-12T18:27:48.887Z,11.76
2019-05-12T18:30:16.803Z,11.68
2019-05-12T18:32:46.634Z,11.61
2019-05-12T18:35:28.448Z,11.48
2019-05-12T18:38:01.782Z,11.34
2019-05-12T18:40:34.204Z,11.11
2019-05-12T18:43:05.187Z,11.10
2019-05-12T18:45:35.743Z,10.83
2019-05-12T18:48:16.642Z,10.63
2019-05-12T18:50:38.803Z,10.49
2019-05-12T18:53:14.843Z,10.41
2019-05-12T18:55:44.279Z,10.27
2019-05-12T18:58:14.995Z,10.16
2019-05-12T19:00:46.543Z,10.20
2019-05-12T19:03:20.644Z,9.92
2019-05-12T19:05:50.504Z,9.86
2019-05-12T19:08:23.444Z,9.86
2019-05-12T19:10:53.436Z,9.80
2019-05-12T19:13:30.460Z,9.66
2019-05-12T19:16:11.141Z,9.59
2019-05-12T19:18:40.260Z,9.43
2019-05-12T19:21:16.601Z,9.32
2019-05-12T19:23:43.553Z,9.21
2019-05-12T19:26:14.604Z,9.08
2019-05-12T19:29:09.071Z,9.05
2019-05-12T19:31:48.887Z,9.05
2019-05-12T19:34:19.942Z,9.10
2019-05-12T19:36:49.441Z,9.00
2019-05-12T19:39:17.465Z,8.94
2019-05-12T19:41:48.132Z,8.83
2019-05-12T19:44:20.071Z,8.79
2019-05-12T19:46:51.013Z,8.74
2019-05-12T19:49:26.101Z,8.67
2019-05-12T19:51:54.379Z,8.63
2019-05-12T19:54:29.699Z,8.55
2019-05-12T19:56:57.308Z,8.54
2019-05-12T19:59:27.969Z,8.52
2019-05-12T20:01:58.560Z,8.67
2019-05-12T20:04:33.640Z,8.65
2019-05-12T20:07:03.688Z,8.39
2019-05-12T20:09:34.838Z,8.39
2019-05-12T20:12:08.479Z,8.39
2019-05-12T20:14:37.820Z,8.61
2019-05-12T20:17:08.333Z,8.57
2019-05-12T20:19:39.346Z,8.36
2019-05-12T20:22:10.203Z,8.29
2019-05-12T20:24:46.076Z,8.10
2019-05-12T20:27:21.765Z,8.06
2019-05-12T20:29:54.022Z,8.12
2019-05-12T20:32:24.265Z,8.12
2019-05-12T20:34:55.456Z,8.16
2019-05-12T20:37:53.173Z,8.04
2019-05-12T20:40:18.595Z,8.10
2019-05-12T20:43:07.314Z,8.05
2019-05-12T20:45:25.784Z,7.84
2019-05-12T20:47:55.748Z,7.74
2019-05-12T20:50:32.557Z,7.60
2019-05-12T20:52:59.255Z,7.57
2019-05-12T20:55:30.116Z,7.60
2019-05-12T20:58:04.060Z,7.53
2019-05-12T21:00:38.974Z,7.44
2019-05-12T21:03:10.718Z,7.47
2019-05-12T21:05:41.267Z,7.52
2019-05-12T21:08:14.980Z,7.27
2019-05-12T21:10:44.020Z,7.28
2019-05-12T21:13:15.130Z,7.22
2019-05-12T21:15:45.987Z,7.34
2019-05-12T21:18:16.865Z,7.20
2019-05-12T21:20:52.748Z,7.35
2019-05-12T21:23:20.067Z,7.24
2019-05-12T21:25:56.199Z,7.22
2019-05-12T21:28:23.974Z,7.17
2019-05-12T21:30:55.873Z,7.11
2019-05-12T21:33:31.379Z,7.03
2019-05-12T21:35:59.682Z,7.01
2019-05-12T21:38:30.258Z,6.99
2019-05-12T21:41:10.017Z,7.04
2019-05-12T21:43:43.423Z,6.92
2019-05-12T21:46:15.619Z,6.99
2019-05-12T21:48:46.735Z,7.04
2019-05-12T21:51:20.004Z,7.06
2019-05-12T21:53:50.705Z,7.09
2019-05-12T21:56:25.905Z,6.97
2019-05-12T21:58:58.393Z,6.91
2019-05-12T22:01:29.098Z,6.80
2019-05-12T22:04:02.480Z,6.77
2019-05-12T22:06:34.067Z,6.61
2019-05-12T22:09:06.402Z,6.43
2019-05-12T22:11:43.901Z,5.94
2019-05-12T22:14:09.136Z,5.89
2019-05-12T22:16:44.375Z,5.78
2019-05-12T22:19:12.361Z,6.04
2019-05-12T22:21:46.935Z,6.08
2019-05-12T22:24:15.566Z,6.18
2019-05-12T22:26:54.368Z,6.11
2019-05-12T22:29:30.005Z,5.98
2019-05-12T22:31:57.704Z,6.03
2019-05-12T22:34:37.200Z,5.95
2019-05-12T22:37:00.794Z,5.86
2019-05-12T22:39:33.933Z,6.22
2019-05-12T22:42:04.435Z,6.26
2019-05-12T22:44:35.651Z,6.25
2019-05-12T22:47:12.812Z,6.22
2019-05-12T22:49:38.779Z,6.26
2019-05-12T22:52:10.234Z,6.08
2019-05-12T22:54:46.073Z,6.04
2019-05-12T22:57:14.018Z,6.25
2019-05-12T22:59:44.964Z,6.35
2019-05-12T23:02:24.455Z,6.34
2019-05-12T23:04:47.975Z,6.41
2019-05-12T23:07:19.075Z,6.33
2019-05-12T23:09:50.886Z,6.34
2019-05-12T23:12:23.524Z,6.22
2019-05-12T23:15:02.706Z,6.28
2019-05-12T23:17:26.028Z,6.27
2019-05-12T23:19:56.584Z,6.32
2019-05-12T23:22:29.505Z,6.32
2019-05-12T23:24:59.631Z,6.11
2019-05-12T23:27:30.412Z,6.14
2019-05-12T23:30:10.587Z,6.22
2019-05-12T23:32:34.610Z,6.08
2019-05-12T23:35:05.645Z,6.04
2019-05-12T23:37:40.116Z,6.26
2019-05-12T23:40:11.508Z,6.40
2019-05-12T23:42:41.213Z,6.39
2019-05-12T23:45:13.779Z,6.37
2019-05-12T23:47:44.524Z,6.62
2019-05-12T23:50:15.163Z,6.59
2019-05-12T23:52:45.596Z,6.45
2019-05-12T23:55:16.060Z,6.57
2019-05-12T23:57:47.110Z,6.67
